createdAt,value
2022-12-18T00:00:14.036Z,67.05
2022-12-18T00:06:06.375Z,62.58
2022-12-18T00:11:58.675Z,59.73
2022-12-18T00:17:51.269Z,59.60
2022-12-18T00:23:45.145Z,57.10
2022-12-18T00:29:37.615Z,47.47
2022-12-18T00:35:30.508Z,56.50
2022-12-18T00:41:41.705Z,53.25
2022-12-18T00:47:34.727Z,42.47
2022-12-18T00:53:27.436Z,42.05
2022-12-18T00:59:20.197Z,41.77
2022-12-18T01:05:14.525Z,44.77
2022-12-18T01:11:11.522Z,46.30
2022-12-18T01:17:04.893Z,45.30
2022-12-18T01:22:58.456Z,50.92
2022-12-18T01:28:51.676Z,46.58
2022-12-18T01:34:43.807Z,41.20
2022-12-18T01:40:36.467Z,41.63
2022-12-18T01:46:29.056Z,38.47
2022-12-18T01:52:25.107Z,37.28
2022-12-18T01:58:18.960Z,40.42
2022-12-18T02:04:24.747Z,41.15
2022-12-18T02:10:26.896Z,40.38
2022-12-18T02:16:46.078Z,47.92
2022-12-18T02:23:09.695Z,40.97
2022-12-18T02:29:14.276Z,39.73
2022-12-18T02:35:14.277Z,39.35
2022-12-18T02:41:07.509Z,44.35
2022-12-18T02:47:01.736Z,43.20
2022-12-18T02:53:25.540Z,50.57
2022-12-18T02:59:35.495Z,45.50
2022-12-18T03:05:38.446Z,41.17
2022-12-18T03:11:54.095Z,37.00
2022-12-18T03:18:00.669Z,39.88
2022-12-18T03:23:56.735Z,42.30
2022-12-18T03:30:08.404Z,38.10
2022-12-18T03:36:03.335Z,46.72
2022-12-18T03:42:19.625Z,45.47
2022-12-18T03:48:40.646Z,46.85
2022-12-18T03:54:37.836Z,48.53
2022-12-18T04:00:38.694Z,50.10
2022-12-18T04:06:38.655Z,48.88
2022-12-18T04:12:31.427Z,45.72
2022-12-18T04:18:24.675Z,43.45
2022-12-18T04:24:18.169Z,51.58
2022-12-18T04:30:19.755Z,45.97
2022-12-18T04:36:13.603Z,45.60
2022-12-18T04:42:07.045Z,51.92
2022-12-18T04:53:53.316Z,41.43
2022-12-18T04:59:46.318Z,45.67
2022-12-18T05:05:39.424Z,48.45
2022-12-18T05:11:33.175Z,45.22
2022-12-18T05:17:28.045Z,47.20
2022-12-18T05:23:21.712Z,51.03
2022-12-18T05:29:14.434Z,46.83
2022-12-18T05:35:08.473Z,45.75
2022-12-18T05:41:03.270Z,47.47
2022-12-18T05:46:55.423Z,54.75
2022-12-18T05:52:48.475Z,57.17
2022-12-18T05:58:41.834Z,66.70
2022-12-18T06:10:27.500Z,81.85
2022-12-18T06:16:20.491Z,67.15
2022-12-18T06:22:13.503Z,69.65
2022-12-18T06:28:06.643Z,66.70
2022-12-18T06:39:51.474Z,68.70
2022-12-18T06:45:44.484Z,66.90
2022-12-18T06:51:36.963Z,74.47
2022-12-18T06:57:29.254Z,71.03
2022-12-18T07:03:21.284Z,68.50
2022-12-18T07:09:13.427Z,76.20
2022-12-18T07:15:06.214Z,68.83
2022-12-18T07:20:58.554Z,79.32
2022-12-18T07:26:50.744Z,79.47
2022-12-18T07:32:43.624Z,64.45
2022-12-18T07:38:36.944Z,59.30
2022-12-18T07:44:29.552Z,53.88
2022-12-18T07:50:21.554Z,62.85
2022-12-18T07:56:31.394Z,58.47
2022-12-18T08:02:23.902Z,61.60
2022-12-18T08:08:16.266Z,46.60
2022-12-18T08:14:10.046Z,50.47
2022-12-18T08:20:03.171Z,54.58
2022-12-18T08:25:59.346Z,42.78
2022-12-18T08:31:51.515Z,50.10
2022-12-18T08:37:44.204Z,58.10
2022-12-18T08:43:55.310Z,60.23
2022-12-18T08:49:49.086Z,49.40
2022-12-18T08:55:43.574Z,53.50
2022-12-18T09:01:39.959Z,51.17
2022-12-18T09:07:32.650Z,57.67
2022-12-18T09:13:24.725Z,50.15
2022-12-18T09:19:18.040Z,58.88
2022-12-18T09:25:11.116Z,48.15
2022-12-18T09:31:08.981Z,45.85
2022-12-18T09:37:05.976Z,51.63
2022-12-18T09:43:05.398Z,62.72
2022-12-18T09:49:04.704Z,47.63
2022-12-18T09:55:25.471Z,59.35
2022-12-18T10:01:24.133Z,55.65
2022-12-18T10:07:51.235Z,56.08
2022-12-18T10:13:53.736Z,42.67
2022-12-18T10:19:57.716Z,47.83
2022-12-18T10:25:56.209Z,66.85
2022-12-18T10:31:48.704Z,59.90
2022-12-18T10:38:04.785Z,56.47
2022-12-18T10:44:13.439Z,63.10
2022-12-18T10:50:06.643Z,67.32
2022-12-18T10:56:00.762Z,63.22
2022-12-18T11:02:03.077Z,67.35
2022-12-18T11:07:56.166Z,68.90
2022-12-18T11:14:19.339Z,61.85
2022-12-18T11:20:37.183Z,48.95
2022-12-18T11:26:37.504Z,52.00
2022-12-18T11:32:38.423Z,44.58
2022-12-18T11:38:31.882Z,44.70
2022-12-18T11:44:29.774Z,39.37
2022-12-18T11:50:43.953Z,65.85
2022-12-18T11:56:45.610Z,38.08
2022-12-18T12:02:53.313Z,70.53
2022-12-18T12:09:09.047Z,57.25
2022-12-18T12:15:24.734Z,63.47
2022-12-18T12:21:37.087Z,65.78
2022-12-18T12:27:55.595Z,55.70
2022-12-18T12:34:12.669Z,55.63
2022-12-18T12:40:26.728Z,63.00
2022-12-18T12:46:22.885Z,67.40
2022-12-18T12:52:45.575Z,72.10
2022-12-18T12:59:02.830Z,58.70
2022-12-18T13:05:11.886Z,59.45
2022-12-18T13:11:23.260Z,73.18
2022-12-18T13:17:21.228Z,65.53
2022-12-18T13:23:27.835Z,73.60
2022-12-18T13:29:42.449Z,49.50
2022-12-18T13:35:41.404Z,73.28
2022-12-18T13:41:33.518Z,62.55
2022-12-18T13:47:38.878Z,86.55
2022-12-18T13:53:55.839Z,63.63
2022-12-18T13:59:48.777Z,49.15
2022-12-18T14:05:43.383Z,81.22
2022-12-18T14:11:38.720Z,68.95
2022-12-18T14:17:33.208Z,58.03
2022-12-18T14:23:38.773Z,80.30
2022-12-18T14:29:32.498Z,51.70
2022-12-18T14:35:25.854Z,63.72
2022-12-18T14:41:21.051Z,63.80
2022-12-18T14:47:17.980Z,77.28
2022-12-18T14:53:24.271Z,49.05
2022-12-18T14:59:25.206Z,70.63
2022-12-18T15:05:22.926Z,84.47
2022-12-18T15:11:38.198Z,84.10
2022-12-18T15:17:32.664Z,61.85
2022-12-18T15:23:37.336Z,74.28
2022-12-18T15:29:30.753Z,70.28
2022-12-18T15:35:25.306Z,73.40
2022-12-18T15:41:24.542Z,69.43
2022-12-18T15:47:17.505Z,73.28
2022-12-18T15:53:10.318Z,95.10
2022-12-18T15:59:04.251Z,74.80
2022-12-18T16:04:58.387Z,97.18
2022-12-18T16:10:51.077Z,80.57
2022-12-18T16:16:44.276Z,89.50
2022-12-18T16:22:36.839Z,80.57
2022-12-18T16:28:28.557Z,106.90
2022-12-18T16:34:29.873Z,100.57
2022-12-18T16:40:22.977Z,110.45
2022-12-18T16:46:15.940Z,100.15
2022-12-18T16:52:09.479Z,55.17
2022-12-18T16:58:03.513Z,106.40
2022-12-18T17:03:58.156Z,95.15
2022-12-18T17:09:51.496Z,55.10
2022-12-18T17:15:45.264Z,86.53
2022-12-18T17:21:38.353Z,97.90
2022-12-18T17:27:32.314Z,84.45
2022-12-18T17:39:19.594Z,105.95
2022-12-18T17:45:12.016Z,106.68
2022-12-18T17:51:06.491Z,52.22
2022-12-18T17:56:58.846Z,107.55
2022-12-18T18:02:51.246Z,89.20
2022-12-18T18:08:44.378Z,117.05
2022-12-18T18:14:36.855Z,76.78
2022-12-18T18:20:30.735Z,72.53
2022-12-18T18:26:23.489Z,77.95
2022-12-18T18:32:19.257Z,87.72
2022-12-18T18:38:12.205Z,80.43
2022-12-18T18:44:05.995Z,114.82
2022-12-18T18:49:58.371Z,100.63
2022-12-18T18:56:17.237Z,146.57
2022-12-18T19:02:07.103Z,120.20
2022-12-18T19:08:00.531Z,111.90
2022-12-18T19:13:55.566Z,90.00
2022-12-18T19:19:52.264Z,123.50
2022-12-18T19:25:45.415Z,107.75
2022-12-18T19:31:42.006Z,124.88
2022-12-18T19:37:37.317Z,67.07
2022-12-18T19:43:30.657Z,104.30
2022-12-18T19:49:27.207Z,109.03
2022-12-18T19:55:22.669Z,85.32
2022-12-18T20:01:19.031Z,95.38
2022-12-18T20:07:15.176Z,100.43
2022-12-18T20:13:13.687Z,129.07
2022-12-18T20:19:12.065Z,111.32
2022-12-18T20:25:11.064Z,122.35
2022-12-18T20:31:10.586Z,118.30
2022-12-18T20:37:07.895Z,97.18
2022-12-18T20:43:04.116Z,125.40
2022-12-18T20:48:57.196Z,124.93
2022-12-18T20:54:50.909Z,123.18
2022-12-18T21:00:44.666Z,122.80
2022-12-18T21:06:42.024Z,122.50
2022-12-18T21:12:42.742Z,129.30
2022-12-18T21:18:41.326Z,115.45
2022-12-18T21:24:34.075Z,130.05
2022-12-18T21:30:27.625Z,131.63
2022-12-18T21:36:19.814Z,135.35
2022-12-18T21:42:31.636Z,105.60
2022-12-18T21:48:24.510Z,101.43
2022-12-18T21:54:17.612Z,100.90
2022-12-18T22:00:18.963Z,100.45
2022-12-18T22:06:13.289Z,110.03
2022-12-18T22:12:06.246Z,102.38
2022-12-18T22:18:00.432Z,91.30
2022-12-18T22:23:58.901Z,102.28
2022-12-18T22:30:06.757Z,144.32
2022-12-18T22:35:58.245Z,163.00
2022-12-18T22:41:51.433Z,143.13
2022-12-18T22:47:44.682Z,157.70
2022-12-18T22:53:36.813Z,117.03
2022-12-18T22:59:29.682Z,106.40
2022-12-18T23:05:21.936Z,124.82
2022-12-18T23:11:18.048Z,86.50
2022-12-18T23:17:10.357Z,171.15
2022-12-18T23:34:49.778Z,160.57
2022-12-18T23:40:41.937Z,126.15
2022-12-18T23:46:37.844Z,160.77
2022-12-18T23:52:29.989Z,167.10
2022-12-18T23:58:23.668Z,203.68
